createdAt,value
2023-10-20T00:00:43.216Z,97496.31
2023-10-20T00:03:10.386Z,97489.56
2023-10-20T00:05:37.674Z,97500.34
2023-10-20T00:08:05.079Z,97501.63
2023-10-20T00:10:35.032Z,97506.56
2023-10-20T00:13:01.710Z,97526.44
2023-10-20T00:15:29.420Z,97516.56
2023-10-20T00:17:56.015Z,97523.97
2023-10-20T00:20:22.699Z,97520.69
2023-10-20T00:22:49.660Z,97520.22
2023-10-20T00:25:16.212Z,97514.09
2023-10-20T00:27:42.794Z,97515.84
2023-10-20T00:30:10.630Z,97521.59
2023-10-20T00:32:41.102Z,97529.00
2023-10-20T00:35:11.450Z,97527.50
2023-10-20T00:37:38.234Z,97517.69
2023-10-20T00:40:10.158Z,97498.03
2023-10-20T00:42:37.167Z,97491.81
2023-10-20T00:45:05.281Z,97485.06
2023-10-20T00:47:32.933Z,97490.31
2023-10-20T00:50:00.528Z,97492.38
2023-10-20T00:52:30.071Z,97485.13
2023-10-20T00:54:57.447Z,97475.31
2023-10-20T00:57:24.887Z,97474.19
2023-10-20T00:59:51.675Z,97474.00
2023-10-20T01:02:18.409Z,97465.78
2023-10-20T01:04:45.604Z,97464.59
2023-10-20T01:07:12.374Z,97461.19
2023-10-20T01:09:38.863Z,97450.41
2023-10-20T01:12:05.756Z,97435.47
2023-10-20T01:14:32.629Z,97421.03
2023-10-20T01:16:59.398Z,97414.97
2023-10-20T01:19:26.050Z,97414.88
2023-10-20T01:21:53.808Z,97406.56
2023-10-20T01:24:21.174Z,97398.41
2023-10-20T01:26:47.743Z,97388.41
2023-10-20T01:29:14.411Z,97378.41
2023-10-20T01:31:41.075Z,97377.44
2023-10-20T01:34:07.630Z,97381.19
2023-10-20T01:36:34.755Z,97381.34
2023-10-20T01:39:01.335Z,97376.25
2023-10-20T01:41:27.964Z,97381.34
2023-10-20T01:43:54.681Z,97372.69
2023-10-20T01:46:50.637Z,97369.91
2023-10-20T01:49:37.496Z,97352.03
2023-10-20T01:52:24.395Z,97333.00
2023-10-20T01:55:10.884Z,97327.25
2023-10-20T01:57:57.623Z,97330.19
2023-10-20T02:00:45.276Z,97325.91
2023-10-20T02:03:12.075Z,97328.53
2023-10-20T02:05:38.814Z,97309.50
2023-10-20T02:08:05.904Z,97309.34
2023-10-20T02:10:32.518Z,97303.44
2023-10-20T02:12:58.969Z,97305.22
2023-10-20T02:15:25.719Z,97288.19
2023-10-20T02:17:52.377Z,97292.44
2023-10-20T02:20:22.292Z,97283.91
2023-10-20T02:22:53.945Z,97265.53
2023-10-20T02:25:21.338Z,97268.00
2023-10-20T02:27:48.431Z,97264.88
2023-10-20T02:30:16.740Z,97243.06
2023-10-20T02:32:44.066Z,97242.22
2023-10-20T02:35:10.848Z,97251.25
2023-10-20T02:37:37.760Z,97254.84
2023-10-20T02:40:07.753Z,97248.63
2023-10-20T02:42:34.573Z,97248.00
2023-10-20T02:45:01.522Z,97243.06
2023-10-20T02:47:28.047Z,97243.06
2023-10-20T02:49:56.584Z,97238.00
2023-10-20T02:52:26.808Z,97211.75
2023-10-20T02:54:54.880Z,97194.50
2023-10-20T02:57:21.989Z,97187.78
2023-10-20T02:59:49.278Z,97188.28
2023-10-20T03:02:19.955Z,97178.91
2023-10-20T03:04:47.024Z,97167.91
2023-10-20T03:07:13.892Z,97178.41
2023-10-20T03:09:40.614Z,97178.25
2023-10-20T03:12:07.181Z,97180.56
2023-10-20T03:14:34.982Z,97176.47
2023-10-20T03:17:02.064Z,97168.59
2023-10-20T03:19:28.761Z,97174.66
2023-10-20T03:21:55.614Z,97166.13
2023-10-20T03:24:22.135Z,97164.81
2023-10-20T03:26:49.417Z,97154.31
2023-10-20T03:29:16.352Z,97157.28
2023-10-20T03:31:44.476Z,97155.63
2023-10-20T03:34:11.162Z,97135.47
2023-10-20T03:36:37.655Z,97119.56
2023-10-20T03:39:15.774Z,97117.25
2023-10-20T03:41:42.560Z,97104.94
2023-10-20T03:44:09.394Z,97105.94
2023-10-20T03:46:45.056Z,97099.88
2023-10-20T03:49:11.839Z,97095.94
2023-10-20T03:51:39.060Z,97094.44
2023-10-20T03:54:06.680Z,97101.84
2023-10-20T03:56:36.525Z,97095.09
2023-10-20T03:59:03.211Z,97088.03
2023-10-20T04:01:29.877Z,97091.16
2023-10-20T04:03:57.177Z,97078.69
2023-10-20T04:06:23.812Z,97078.22
2023-10-20T04:08:50.635Z,97069.16
2023-10-20T04:11:17.174Z,97062.94
2023-10-20T04:13:43.778Z,97050.50
2023-10-20T04:16:14.632Z,97040.66
2023-10-20T04:18:42.321Z,97036.38
2023-10-20T04:21:12.363Z,97035.88
2023-10-20T04:23:39.628Z,97022.91
2023-10-20T04:26:17.036Z,97019.66
2023-10-20T04:28:49.126Z,97012.78
2023-10-20T04:31:37.434Z,97016.50
2023-10-20T04:34:23.968Z,97009.94
2023-10-20T04:37:09.308Z,97005.34
2023-10-20T04:39:54.946Z,96992.22
2023-10-20T04:42:36.702Z,96967.00
2023-10-20T04:45:18.988Z,96936.84
2023-10-20T04:48:15.118Z,96923.38
2023-10-20T04:51:09.913Z,96923.88
2023-10-20T04:53:36.592Z,96909.78
2023-10-20T04:56:15.803Z,96899.75
2023-10-20T04:58:55.415Z,96896.31
2023-10-20T05:01:31.190Z,96890.69
2023-10-20T05:04:11.225Z,96898.94
2023-10-20T05:06:44.770Z,96891.22
2023-10-20T05:09:15.463Z,96887.13
2023-10-20T05:11:42.817Z,96879.13
2023-10-20T05:14:10.464Z,96873.53
2023-10-20T05:16:37.253Z,96851.72
2023-10-20T05:19:05.451Z,96850.25
2023-10-20T05:21:35.882Z,96841.56
2023-10-20T05:24:05.183Z,96830.25
2023-10-20T05:26:32.983Z,96818.13
2023-10-20T05:29:02.546Z,96817.47
2023-10-20T05:31:31.015Z,96817.31
2023-10-20T05:33:58.113Z,96788.28
2023-10-20T05:36:24.657Z,96778.09
2023-10-20T05:38:51.455Z,96775.28
2023-10-20T05:41:18.041Z,96770.38
2023-10-20T05:43:44.914Z,96768.41
2023-10-20T05:46:20.611Z,96750.34
2023-10-20T05:48:48.525Z,96747.72
2023-10-20T05:51:15.188Z,96737.22
2023-10-20T05:53:41.859Z,96740.66
2023-10-20T05:56:10.859Z,96727.16
2023-10-20T05:58:39.154Z,96721.31
2023-10-20T06:01:12.588Z,96716.41
2023-10-20T06:03:39.526Z,96711.50
2023-10-20T06:06:06.276Z,96707.59
2023-10-20T06:08:32.886Z,96695.16
2023-10-20T06:11:04.333Z,96688.00
2023-10-20T06:13:36.510Z,96695.88
2023-10-20T06:16:11.640Z,96686.34
2023-10-20T06:18:40.332Z,96680.94
2023-10-20T06:21:11.648Z,96690.25
2023-10-20T06:23:38.255Z,96684.66
2023-10-20T06:26:04.944Z,96672.88
2023-10-20T06:28:31.594Z,96664.00
2023-10-20T06:31:01.925Z,96653.06
2023-10-20T06:33:35.887Z,96643.19
2023-10-20T06:36:12.175Z,96639.41
2023-10-20T06:38:47.779Z,96612.34
2023-10-20T06:41:14.367Z,96611.38
2023-10-20T06:43:41.645Z,96603.66
2023-10-20T06:46:08.124Z,96604.88
2023-10-20T06:48:34.974Z,96586.84
2023-10-20T06:51:01.514Z,96575.81
2023-10-20T06:53:29.667Z,96566.41
2023-10-20T06:56:13.279Z,96554.94
2023-10-20T06:58:42.596Z,96549.81
2023-10-20T07:01:09.513Z,96546.47
2023-10-20T07:03:36.233Z,96530.09
2023-10-20T07:06:08.483Z,96540.44
2023-10-20T07:08:35.351Z,96522.97
2023-10-20T07:11:03.592Z,96521.31
2023-10-20T07:13:30.258Z,96493.25
2023-10-20T07:15:58.744Z,96476.63
2023-10-20T07:18:25.506Z,96481.50
2023-10-20T07:20:58.164Z,96497.19
2023-10-20T07:23:25.638Z,96511.53
2023-10-20T07:25:52.248Z,96525.84
2023-10-20T07:28:18.763Z,96525.03
2023-10-20T07:30:45.247Z,96543.13
2023-10-20T07:33:12.053Z,96550.66
2023-10-20T07:35:39.770Z,96554.66
2023-10-20T07:38:06.667Z,96543.41
2023-10-20T07:40:36.014Z,96540.41
2023-10-20T07:43:04.727Z,96538.50
2023-10-20T07:45:32.562Z,96539.16
2023-10-20T07:48:01.916Z,96544.22
2023-10-20T07:50:29.270Z,96529.91
2023-10-20T07:52:56.478Z,96530.63
2023-10-20T07:55:23.111Z,96539.63
2023-10-20T07:57:49.738Z,96543.78
2023-10-20T08:00:16.272Z,96556.09
2023-10-20T08:02:43.065Z,96578.03
2023-10-20T08:05:09.949Z,96580.66
2023-10-20T08:07:36.880Z,96592.44
2023-10-20T08:10:03.770Z,96587.72
2023-10-20T08:12:30.247Z,96596.88
2023-10-20T08:14:57.408Z,96588.59
2023-10-20T08:17:28.324Z,96588.88
2023-10-20T08:19:56.607Z,96595.22
2023-10-20T08:22:24.609Z,96594.47
2023-10-20T08:24:52.347Z,96595.94
2023-10-20T08:27:19.858Z,96604.44
2023-10-20T08:29:49.134Z,96613.94
2023-10-20T08:32:16.309Z,96629.72
2023-10-20T08:34:42.898Z,96643.91
2023-10-20T08:37:09.356Z,96649.34
2023-10-20T08:39:36.147Z,96649.34
2023-10-20T08:42:03.507Z,96651.84
2023-10-20T08:44:31.432Z,96650.13
2023-10-20T08:46:59.164Z,96648.28
2023-10-20T08:49:26.356Z,96652.81
2023-10-20T08:51:55.171Z,96653.81
2023-10-20T08:54:22.545Z,96662.34
2023-10-20T08:56:49.176Z,96670.25
2023-10-20T08:59:15.902Z,96685.25
2023-10-20T09:01:43.381Z,96684.44
2023-10-20T09:04:21.277Z,96687.34
2023-10-20T09:06:47.896Z,96683.81
2023-10-20T09:09:15.394Z,96688.38
2023-10-20T09:11:42.079Z,96695.66
2023-10-20T09:14:08.846Z,96712.72
2023-10-20T09:16:35.659Z,96750.03
2023-10-20T09:19:04.697Z,96777.03
2023-10-20T09:21:31.780Z,96791.09
2023-10-20T09:24:06.228Z,96778.50
2023-10-20T09:26:35.877Z,96812.44
2023-10-20T09:29:09.316Z,96816.75
2023-10-20T09:31:38.488Z,96813.66
2023-10-20T09:34:08.906Z,96806.25
2023-10-20T09:36:36.766Z,96799.00
2023-10-20T09:39:06.580Z,96795.63
2023-10-20T09:41:36.183Z,96783.06
2023-10-20T09:44:08.025Z,96778.09
2023-10-20T09:47:00.808Z,96776.16
2023-10-20T09:49:28.578Z,96783.88
2023-10-20T09:51:58.255Z,96786.69
2023-10-20T09:54:29.225Z,96783.88
2023-10-20T09:57:00.838Z,96795.38
2023-10-20T09:59:29.176Z,96800.03
2023-10-20T10:01:57.603Z,96803.00
2023-10-20T10:04:31.946Z,96813.09
2023-10-20T10:07:06.084Z,96814.66
2023-10-20T10:09:38.354Z,96816.44
2023-10-20T10:12:15.302Z,96830.59
2023-10-20T10:14:42.082Z,96830.59
2023-10-20T10:17:10.413Z,96833.59
2023-10-20T10:19:50.017Z,96820.16
2023-10-20T10:22:17.001Z,96811.47
2023-10-20T10:24:55.537Z,96806.00
2023-10-20T10:27:25.845Z,96810.16
2023-10-20T10:29:54.764Z,96819.63
2023-10-20T10:32:23.639Z,96817.63
2023-10-20T10:34:57.903Z,96827.31
2023-10-20T10:37:36.314Z,96834.31
2023-10-20T10:40:12.037Z,96836.41
2023-10-20T10:42:46.493Z,96839.13
2023-10-20T10:45:24.871Z,96840.22
2023-10-20T10:48:03.571Z,96844.13
2023-10-20T10:50:30.547Z,96856.09
2023-10-20T10:52:57.310Z,96847.13
2023-10-20T10:55:25.813Z,96842.13
2023-10-20T10:57:52.437Z,96840.22
2023-10-20T11:00:19.772Z,96824.50
2023-10-20T11:02:47.593Z,96821.53
2023-10-20T11:05:16.298Z,96830.69
2023-10-20T11:08:18.611Z,96839.84
2023-10-20T11:10:47.394Z,96838.81
2023-10-20T11:13:17.253Z,96834.34
2023-10-20T11:15:44.433Z,96836.84
2023-10-20T11:18:13.951Z,96833.53
2023-10-20T11:20:43.495Z,96829.03
2023-10-20T11:23:12.438Z,96829.22
2023-10-20T11:25:41.820Z,96823.66
2023-10-20T11:28:09.100Z,96832.75
2023-10-20T11:30:42.850Z,96836.28
2023-10-20T11:33:15.596Z,96843.59
2023-10-20T11:35:43.604Z,96846.28
2023-10-20T11:38:10.438Z,96838.06
2023-10-20T11:40:36.934Z,96849.34
2023-10-20T11:43:04.448Z,96839.09
2023-10-20T11:45:31.004Z,96857.63
2023-10-20T11:47:57.597Z,96854.44
2023-10-20T11:50:24.807Z,96854.53
2023-10-20T11:52:51.772Z,96864.44
2023-10-20T11:55:19.443Z,96882.31
2023-10-20T11:57:46.080Z,96901.47
2023-10-20T12:00:14.881Z,96900.41
2023-10-20T12:02:42.230Z,96898.59
2023-10-20T12:05:09.835Z,96889.16
2023-10-20T12:07:37.411Z,96888.63
2023-10-20T12:10:07.431Z,96889.69
2023-10-20T12:12:35.047Z,96898.16
2023-10-20T12:15:02.103Z,96907.72
2023-10-20T12:17:29.848Z,96912.56
2023-10-20T12:19:56.809Z,96932.72
2023-10-20T12:22:24.135Z,96928.28
2023-10-20T12:24:51.574Z,96935.59
2023-10-20T12:27:18.590Z,96923.09
2023-10-20T12:29:45.170Z,96924.31
2023-10-20T12:32:14.138Z,96923.31
2023-10-20T12:34:41.630Z,96913.84
2023-10-20T12:37:09.040Z,96907.50
2023-10-20T12:39:35.718Z,96918.50
2023-10-20T12:42:06.406Z,96906.31
2023-10-20T12:44:37.187Z,96901.94
2023-10-20T12:47:04.501Z,96903.91
2023-10-20T12:49:32.671Z,96906.53
2023-10-20T12:52:00.465Z,96918.84
2023-10-20T12:54:27.477Z,96926.69
2023-10-20T12:56:54.059Z,96933.41
2023-10-20T12:59:20.972Z,96929.78
2023-10-20T13:01:48.117Z,96938.13
2023-10-20T13:04:15.107Z,96945.28
2023-10-20T13:06:58.044Z,96947.34
2023-10-20T13:09:27.271Z,96958.72
2023-10-20T13:11:54.136Z,96948.53
2023-10-20T13:14:20.901Z,96944.91
2023-10-20T13:16:47.757Z,96949.81
2023-10-20T13:19:15.173Z,96957.28
2023-10-20T13:21:42.317Z,96963.34
2023-10-20T13:24:09.103Z,96970.63
2023-10-20T13:26:35.670Z,96974.06
2023-10-20T13:29:02.154Z,96975.53
2023-10-20T13:31:28.717Z,96980.25
2023-10-20T13:33:56.142Z,96990.44
2023-10-20T13:36:22.905Z,96992.63
2023-10-20T13:38:49.648Z,96983.00
2023-10-20T13:41:16.488Z,96979.09
2023-10-20T13:43:43.076Z,96977.75
2023-10-20T13:46:11.086Z,96997.91
2023-10-20T13:48:38.268Z,96971.53
2023-10-20T13:51:05.136Z,96978.81
2023-10-20T13:53:31.907Z,96973.09
2023-10-20T13:55:58.520Z,96988.38
2023-10-20T13:58:25.293Z,96976.38
2023-10-20T14:00:52.492Z,96987.25
2023-10-20T14:03:19.356Z,96981.81
2023-10-20T14:05:56.058Z,96990.06
2023-10-20T14:08:24.242Z,97013.41
2023-10-20T14:10:51.576Z,97018.69
2023-10-20T14:13:18.546Z,97028.41
2023-10-20T14:15:45.725Z,97037.16
2023-10-20T14:18:12.649Z,97041.97
2023-10-20T14:20:40.366Z,97071.34
2023-10-20T14:23:07.497Z,97080.59
2023-10-20T14:25:34.220Z,97083.06
2023-10-20T14:28:00.814Z,97091.78
2023-10-20T14:30:27.356Z,97091.72
2023-10-20T14:32:54.049Z,97106.44
2023-10-20T14:35:20.841Z,97107.78
2023-10-20T14:37:47.326Z,97123.13
2023-10-20T14:40:14.113Z,97133.88
2023-10-20T14:42:40.757Z,97137.22
2023-10-20T14:45:08.100Z,97124.75
2023-10-20T14:47:34.918Z,97120.50
2023-10-20T14:50:01.470Z,97129.09
2023-10-20T14:52:30.250Z,97135.94
2023-10-20T14:54:57.002Z,97145.00
2023-10-20T14:57:24.424Z,97164.63
2023-10-20T14:59:50.985Z,97176.66
2023-10-20T15:02:17.568Z,97172.56
2023-10-20T15:04:44.187Z,97158.41
2023-10-20T15:07:10.704Z,97161.50
2023-10-20T15:09:38.034Z,97167.78
2023-10-20T15:12:04.842Z,97163.69
2023-10-20T15:14:32.019Z,97166.47
2023-10-20T15:16:58.585Z,97163.59
2023-10-20T15:19:25.422Z,97178.09
2023-10-20T15:21:53.645Z,97182.53
2023-10-20T15:24:20.228Z,97193.06
2023-10-20T15:26:47.719Z,97213.72
2023-10-20T15:29:14.246Z,97210.25
2023-10-20T15:31:41.122Z,97210.59
2023-10-20T15:34:07.591Z,97221.13
2023-10-20T15:36:47.587Z,97224.31
2023-10-20T15:39:14.248Z,97239.28
2023-10-20T15:41:40.793Z,97242.91
2023-10-20T15:44:11.037Z,97242.59
2023-10-20T15:46:37.850Z,97237.00
2023-10-20T15:49:07.348Z,97244.78
2023-10-20T15:51:34.005Z,97253.97
2023-10-20T15:54:00.801Z,97253.03
2023-10-20T15:56:29.010Z,97249.75
2023-10-20T15:58:56.060Z,97243.16
2023-10-20T16:01:23.275Z,97241.97
2023-10-20T16:03:50.998Z,97242.25
2023-10-20T16:06:17.723Z,97262.19
2023-10-20T16:08:44.212Z,97254.03
2023-10-20T16:11:11.381Z,97259.81
2023-10-20T16:13:38.178Z,97263.44
2023-10-20T16:16:04.835Z,97261.63
2023-10-20T16:18:31.645Z,97267.91
2023-10-20T16:20:58.227Z,97275.47
2023-10-20T16:23:25.148Z,97281.25
2023-10-20T16:25:51.635Z,97267.44
2023-10-20T16:28:18.198Z,97268.75
2023-10-20T16:30:44.721Z,97270.09
2023-10-20T16:33:11.691Z,97286.06
2023-10-20T16:35:38.308Z,97283.94
2023-10-20T16:38:04.742Z,97289.19
2023-10-20T16:40:32.500Z,97294.78
2023-10-20T16:42:59.200Z,97307.94
2023-10-20T16:45:25.727Z,97304.16
2023-10-20T16:47:52.580Z,97311.06
2023-10-20T16:50:19.369Z,97308.94
2023-10-20T16:52:46.184Z,97322.25
2023-10-20T16:55:12.862Z,97305.84
2023-10-20T16:57:39.511Z,97312.91
2023-10-20T17:00:07.188Z,97308.47
2023-10-20T17:02:34.179Z,97313.09
2023-10-20T17:05:01.017Z,97319.50
2023-10-20T17:07:27.495Z,97306.81
2023-10-20T17:09:54.377Z,97311.25
2023-10-20T17:12:21.566Z,97310.91
2023-10-20T17:14:48.504Z,97316.16
2023-10-20T17:17:15.592Z,97323.88
2023-10-20T17:19:42.164Z,97327.66
2023-10-20T17:22:08.954Z,97332.59
2023-10-20T17:24:35.748Z,97336.19
2023-10-20T17:27:04.151Z,97334.22
2023-10-20T17:29:31.014Z,97343.75
2023-10-20T17:31:57.643Z,97343.91
2023-10-20T17:34:24.575Z,97347.03
2023-10-20T17:36:51.842Z,97348.19
2023-10-20T17:39:19.625Z,97342.94
2023-10-20T17:41:46.743Z,97347.22
2023-10-20T17:44:13.545Z,97348.84
2023-10-20T17:46:41.216Z,97343.56
2023-10-20T17:49:08.214Z,97349.84
2023-10-20T17:51:35.961Z,97345.56
2023-10-20T17:54:02.621Z,97336.53
2023-10-20T17:56:29.208Z,97342.13
2023-10-20T17:58:56.247Z,97348.19
2023-10-20T18:01:23.177Z,97347.69
2023-10-20T18:03:49.988Z,97341.28
2023-10-20T18:06:22.384Z,97346.03
2023-10-20T18:08:52.324Z,97346.72
2023-10-20T18:11:21.258Z,97352.78
2023-10-20T18:13:48.963Z,97350.47
2023-10-20T18:16:17.034Z,97353.09
2023-10-20T18:18:46.222Z,97354.91
2023-10-20T18:21:13.076Z,97360.16
2023-10-20T18:23:40.506Z,97357.19
2023-10-20T18:26:08.286Z,97360.63
2023-10-20T18:28:35.202Z,97364.41
2023-10-20T18:31:12.485Z,97360.97
2023-10-20T18:33:39.513Z,97358.81
2023-10-20T18:36:06.969Z,97362.75
2023-10-20T18:38:33.739Z,97367.69
2023-10-20T18:41:02.410Z,97357.66
2023-10-20T18:43:29.013Z,97361.13
2023-10-20T18:45:59.265Z,97358.50
2023-10-20T18:48:27.741Z,97348.31
2023-10-20T18:51:03.878Z,97352.06
2023-10-20T18:53:30.496Z,97356.00
2023-10-20T18:55:58.034Z,97357.97
2023-10-20T18:58:24.649Z,97360.44
2023-10-20T19:00:53.874Z,97375.00
2023-10-20T19:03:20.903Z,97377.97
2023-10-20T19:05:49.625Z,97367.81
2023-10-20T19:08:16.944Z,97371.75
2023-10-20T19:10:43.672Z,97386.53
2023-10-20T19:13:10.683Z,97386.69
2023-10-20T19:15:37.383Z,97384.25
2023-10-20T19:18:04.582Z,97383.44
2023-10-20T19:20:31.179Z,97389.66
2023-10-20T19:22:57.736Z,97383.06
2023-10-20T19:25:24.231Z,97389.47
2023-10-20T19:27:50.758Z,97388.44
2023-10-20T19:30:17.401Z,97392.50
2023-10-20T19:32:43.938Z,97390.34
2023-10-20T19:35:10.622Z,97389.69
2023-10-20T19:37:38.331Z,97385.91
2023-10-20T19:40:06.926Z,97392.44
2023-10-20T19:42:33.701Z,97390.44
2023-10-20T19:45:02.114Z,97388.97
2023-10-20T19:47:28.804Z,97392.38
2023-10-20T19:49:55.366Z,97400.72
2023-10-20T19:52:22.448Z,97386.38
2023-10-20T19:54:49.125Z,97388.81
2023-10-20T19:57:15.792Z,97394.06
2023-10-20T19:59:42.418Z,97395.88
2023-10-20T20:02:09.488Z,97395.19
2023-10-20T20:04:36.208Z,97397.00
2023-10-20T20:07:03.010Z,97387.19
2023-10-20T20:09:29.638Z,97400.28
2023-10-20T20:11:57.095Z,97390.94
2023-10-20T20:14:23.803Z,97397.97
2023-10-20T20:16:50.589Z,97410.44
2023-10-20T20:19:17.301Z,97409.13
2023-10-20T20:21:43.889Z,97416.50
2023-10-20T20:24:10.614Z,97410.13
2023-10-20T20:26:37.313Z,97416.72
2023-10-20T20:29:05.447Z,97422.66
2023-10-20T20:31:32.372Z,97425.16
2023-10-20T20:33:58.987Z,97415.84
2023-10-20T20:36:25.493Z,97426.34
2023-10-20T20:38:51.991Z,97425.66
2023-10-20T20:41:18.469Z,97433.53
2023-10-20T20:43:45.101Z,97432.91
2023-10-20T20:46:11.773Z,97431.28
2023-10-20T20:48:38.352Z,97434.88
2023-10-20T20:51:09.312Z,97435.69
2023-10-20T20:53:35.998Z,97442.75
2023-10-20T20:56:02.573Z,97436.00
2023-10-20T20:58:29.029Z,97432.56
2023-10-20T21:00:56.291Z,97439.44
2023-10-20T21:03:23.157Z,97432.25
2023-10-20T21:06:00.231Z,97441.25
2023-10-20T21:08:27.128Z,97445.53
2023-10-20T21:10:53.768Z,97437.69
2023-10-20T21:13:20.210Z,97443.09
2023-10-20T21:15:46.653Z,97448.69
2023-10-20T21:18:13.315Z,97453.47
2023-10-20T21:20:40.226Z,97454.16
2023-10-20T21:23:06.874Z,97455.66
2023-10-20T21:25:37.877Z,97459.41
2023-10-20T21:28:05.411Z,97460.75
2023-10-20T21:30:32.171Z,97456.66
2023-10-20T21:32:58.728Z,97464.69
2023-10-20T21:35:25.348Z,97460.66
2023-10-20T21:37:51.809Z,97462.66
2023-10-20T21:40:18.301Z,97457.75
2023-10-20T21:42:44.886Z,97460.38
2023-10-20T21:45:11.359Z,97469.09
2023-10-20T21:47:38.486Z,97463.00
2023-10-20T21:50:05.633Z,97461.38
2023-10-20T21:52:32.445Z,97456.13
2023-10-20T21:54:59.217Z,97456.13
2023-10-20T21:57:26.150Z,97458.56
2023-10-20T21:59:53.068Z,97444.91
2023-10-20T22:02:20.209Z,97443.94
2023-10-20T22:04:46.735Z,97450.00
2023-10-20T22:07:13.214Z,97446.50
2023-10-20T22:09:53.179Z,97435.84
2023-10-20T22:12:20.633Z,97431.56
2023-10-20T22:14:47.208Z,97437.13
2023-10-20T22:17:13.779Z,97435.03
2023-10-20T22:19:40.337Z,97430.91
2023-10-20T22:22:06.826Z,97428.75
2023-10-20T22:24:33.366Z,97430.22
2023-10-20T22:27:00.168Z,97429.25
2023-10-20T22:29:26.713Z,97433.47
2023-10-20T22:31:53.144Z,97437.69
2023-10-20T22:34:19.647Z,97438.81
2023-10-20T22:36:46.503Z,97430.09
2023-10-20T22:39:13.003Z,97430.41
2023-10-20T22:41:39.614Z,97437.13
2023-10-20T22:44:07.022Z,97445.16
2023-10-20T22:46:33.778Z,97437.44
2023-10-20T22:49:00.391Z,97418.09
2023-10-20T22:51:26.965Z,97421.56
2023-10-20T22:53:53.576Z,97413.00
2023-10-20T22:56:20.144Z,97414.09
2023-10-20T22:58:46.749Z,97425.22
2023-10-20T23:01:13.368Z,97440.78
2023-10-20T23:03:39.932Z,97436.34
2023-10-20T23:06:06.639Z,97428.31
2023-10-20T23:08:34.278Z,97439.28
2023-10-20T23:11:00.748Z,97425.56
2023-10-20T23:13:27.250Z,97444.59
2023-10-20T23:15:53.692Z,97441.97
2023-10-20T23:18:20.402Z,97452.44
2023-10-20T23:20:47.147Z,97462.13
2023-10-20T23:23:13.745Z,97466.53
2023-10-20T23:25:40.628Z,97467.28
2023-10-20T23:28:07.150Z,97453.69
2023-10-20T23:30:33.751Z,97461.13
2023-10-20T23:33:00.376Z,97457.59
2023-10-20T23:35:27.311Z,97462.88
2023-10-20T23:37:54.003Z,97471.28
2023-10-20T23:40:20.547Z,97460.63
2023-10-20T23:42:47.192Z,97467.66
2023-10-20T23:45:13.895Z,97477.66
2023-10-20T23:47:40.581Z,97471.94
2023-10-20T23:50:07.588Z,97481.34
2023-10-20T23:52:34.204Z,97486.31
2023-10-20T23:55:00.832Z,97477.63
2023-10-20T23:57:27.330Z,97480.63
2023-10-20T23:59:53.985Z,97490.78
